Time;durP1;ratioP1;P1;durP2;ratioP2;P2;SDS_P1;SDS_P2;PMS_P1;PMS_P2;Temp;Humidity;BMP_temperature;BMP_pressure;BME280_temperature;BME280_humidity;BME280_pressure;Samples;Min_cycle;Max_cycle;Signal;HPM_P1;HPM_P2
2023/10/18 00:00:28;;;;;;;7.45;2.53;;;5.20;99.90;;;;;;5030263;28;19978;-75
2023/10/18 00:02:54;;;;;;;8.40;2.65;;;5.20;99.90;;;;;;5028985;28;20043;-75
2023/10/18 00:05:21;;;;;;;5.53;2.30;;;5.30;99.90;;;;;;5029768;28;20041;-75
2023/10/18 00:07:48;;;;;;;3.90;2.22;;;5.30;99.90;;;;;;5030036;28;20030;-75
2023/10/18 00:10:17;;;;;;;6.97;2.90;;;5.30;99.90;;;;;;5028588;28;20502;-74
2023/10/18 00:12:47;;;;;;;6.28;2.70;;;5.40;99.90;;;;;;5029942;28;20033;-75
2023/10/18 00:15:14;;;;;;;5.50;2.50;;;5.40;99.90;;;;;;5029770;28;20026;-74
2023/10/18 00:17:40;;;;;;;5.47;2.90;;;5.30;99.90;;;;;;5029465;28;20053;-74
2023/10/18 00:20:27;;;;;;;4.85;2.17;;;5.30;99.90;;;;;;5028429;28;20136;-75
2023/10/18 00:22:54;;;;;;;4.75;1.75;;;5.20;99.90;;;;;;5029637;28;20088;-75
2023/10/18 00:25:22;;;;;;;3.63;1.70;;;5.00;99.90;;;;;;5029740;28;20029;-75
2023/10/18 00:27:48;;;;;;;9.55;3.38;;;5.10;99.90;;;;;;5028213;28;20644;-75
2023/10/18 00:30:14;;;;;;;;;;;5.00;99.90;;;;;;5030186;28;20040;-75
2023/10/18 00:32:42;;;;;;;6.53;2.38;;;5.10;99.90;;;;;;5029658;28;19916;-75
2023/10/18 00:35:18;;;;;;;6.53;2.15;;;5.10;99.90;;;;;;5029677;28;20029;-75
2023/10/18 00:37:44;;;;;;;7.30;2.85;;;5.10;99.90;;;;;;5029679;28;20064;-74
2023/10/18 00:43:22;;;;;;;8.07;1.90;;;5.10;99.90;;;;;;5029919;28;20029;-75
2023/10/18 00:45:53;;;;;;;5.50;1.73;;;5.10;99.90;;;;;;5029377;28;20034;-74
2023/10/18 00:48:28;;;;;;;5.10;2.03;;;5.10;99.90;;;;;;5028324;28;20026;-75
2023/10/18 00:50:56;;;;;;;4.32;2.00;;;5.10;99.90;;;;;;5028247;28;20033;-75
2023/10/18 00:53:24;;;;;;;6.07;2.65;;;5.10;99.90;;;;;;5029687;28;20033;-74
2023/10/18 00:55:57;;;;;;;6.80;3.05;;;5.10;99.90;;;;;;5028260;28;20021;-75
2023/10/18 00:58:31;;;;;;;8.45;2.97;;;5.10;99.90;;;;;;5027450;28;20479;-75
2023/10/18 01:01:06;;;;;;;6.60;2.33;;;5.00;99.90;;;;;;5029528;28;20572;-74
2023/10/18 01:03:32;;;;;;;6.32;1.88;;;5.00;99.90;;;;;;5028402;28;20041;-75
2023/10/18 01:05:58;;;;;;;;;;;5.20;99.90;;;;;;5028821;28;20026;-75
2023/10/18 01:08:24;;;;;;;7.75;2.22;;;5.30;99.90;;;;;;5029902;28;20011;-75
2023/10/18 01:10:51;;;;;;;;;;;5.30;99.90;;;;;;5028469;28;20510;-75
2023/10/18 01:13:20;;;;;;;10.65;2.55;;;5.30;99.90;;;;;;5028149;28;19915;-75
2023/10/18 01:15:46;;;;;;;6.90;2.97;;;5.20;99.90;;;;;;5029658;28;20032;-75
2023/10/18 01:18:12;;;;;;;9.70;2.90;;;5.20;99.90;;;;;;5029569;28;20133;-75
2023/10/18 01:20:40;;;;;;;;;;;5.10;99.90;;;;;;5030414;28;20121;-74
2023/10/18 01:23:10;;;;;;;4.68;2.28;;;5.00;99.90;;;;;;5029995;28;20443;-76
2023/10/18 01:25:35;;;;;;;5.13;2.17;;;4.80;99.90;;;;;;5030045;28;20021;-75
2023/10/18 01:28:01;;;;;;;;;;;4.70;99.90;;;;;;5029027;28;20406;-74
2023/10/18 01:30:29;;;;;;;6.75;2.38;;;4.60;99.90;;;;;;5030328;28;19909;-74
2023/10/18 01:32:55;;;;;;;13.18;4.78;;;4.60;99.90;;;;;;5029010;28;20462;-75
2023/10/18 01:35:21;;;;;;;;;;;4.70;99.90;;;;;;5029367;28;20075;-75
2023/10/18 01:37:49;;;;;;;13.90;4.25;;;4.60;99.90;;;;;;5030765;28;19959;-74
2023/10/18 01:40:41;;;;;;;14.50;3.97;;;4.50;99.90;;;;;;5031257;28;20037;-74
2023/10/18 01:43:10;;;;;;;8.50;2.88;;;4.60;99.90;;;;;;5032325;28;20035;-75
2023/10/18 01:45:37;;;;;;;6.13;2.65;;;4.60;99.90;;;;;;5029922;28;20485;-74
2023/10/18 01:48:06;;;;;;;5.68;2.65;;;4.70;99.90;;;;;;5027375;28;20553;-74
2023/10/18 01:50:32;;;;;;;7.20;2.95;;;4.70;99.90;;;;;;5027354;28;20037;-74
2023/10/18 01:53:00;;;;;;;;;;;4.70;99.90;;;;;;5027635;28;20046;-75
2023/10/18 01:55:28;;;;;;;8.27;2.05;;;4.70;99.90;;;;;;5028553;28;20429;-74
2023/10/18 01:57:53;;;;;;;4.95;1.67;;;4.80;99.90;;;;;;5027153;28;20037;-75
2023/10/18 02:00:25;;;;;;;;;;;4.80;99.90;;;;;;5029008;28;20025;-74
2023/10/18 02:02:50;;;;;;;7.15;2.78;;;4.80;99.90;;;;;;5026989;28;20007;-75
2023/10/18 02:05:16;;;;;;;;;;;4.90;99.90;;;;;;5027494;28;20120;-74
2023/10/18 02:07:47;;;;;;;7.07;1.90;;;4.90;99.90;;;;;;5028367;28;20328;-75
2023/10/18 02:10:20;;;;;;;5.20;2.08;;;4.90;99.90;;;;;;5029261;28;20025;-74
2023/10/18 02:12:46;;;;;;;5.78;2.20;;;4.90;99.90;;;;;;5031927;28;20030;-74
2023/10/18 02:15:12;;;;;;;;;;;4.80;99.90;;;;;;5032328;28;20117;-74
2023/10/18 02:17:39;;;;;;;3.25;1.67;;;4.70;99.90;;;;;;5030630;28;20003;-75
2023/10/18 02:20:14;;;;;;;6.00;2.72;;;4.60;99.90;;;;;;5030615;28;20033;-74
2023/10/18 02:22:42;;;;;;;8.70;3.47;;;4.50;99.90;;;;;;5031892;28;20064;-75
2023/10/18 02:25:09;;;;;;;8.55;3.63;;;4.50;99.90;;;;;;5031729;28;20056;-75
2023/10/18 02:27:36;;;;;;;5.53;2.50;;;4.50;99.90;;;;;;5031721;28;20481;-75
2023/10/18 02:30:03;;;;;;;5.85;2.53;;;4.40;99.90;;;;;;5031817;28;20103;-75
2023/10/18 02:32:32;;;;;;;8.75;2.83;;;4.40;99.90;;;;;;5031558;28;20767;-75
2023/10/18 02:34:58;;;;;;;4.65;2.35;;;4.40;99.90;;;;;;5031549;28;20048;-75
2023/10/18 02:37:27;;;;;;;;;;;4.30;99.90;;;;;;5032168;28;20486;-75
2023/10/18 02:40:07;;;;;;;9.15;2.42;;;4.30;99.90;;;;;;5031550;28;20025;-74
2023/10/18 02:42:32;;;;;;;8.75;2.67;;;4.30;99.90;;;;;;5031529;28;20026;-75
2023/10/18 02:44:59;;;;;;;;;;;4.40;99.90;;;;;;5031709;28;20030;-75
2023/10/18 02:47:25;;;;;;;4.43;2.25;;;4.40;99.90;;;;;;5030100;28;19920;-75
2023/10/18 02:49:53;;;;;;;;;;;4.30;99.90;;;;;;5031651;28;20116;-75
2023/10/18 02:52:19;;;;;;;7.88;2.38;;;4.30;99.90;;;;;;5030036;28;19917;-74
2023/10/18 02:54:48;;;;;;;;;;;4.30;99.90;;;;;;5031834;28;20402;-74
2023/10/18 02:57:14;;;;;;;6.03;2.55;;;4.20;99.90;;;;;;5030354;28;19909;-75
2023/10/18 02:59:43;;;;;;;;;;;4.10;99.90;;;;;;5031946;28;20505;-74
2023/10/18 03:02:15;;;;;;;5.35;2.20;;;4.10;99.90;;;;;;5031566;28;19909;-75
2023/10/18 03:04:47;;;;;;;11.75;2.40;;;4.10;99.90;;;;;;5031409;28;20031;-75
2023/10/18 03:07:13;;;;;;;6.35;2.60;;;4.10;99.90;;;;;;5031434;28;20055;-75
2023/10/18 03:09:42;;;;;;;;;;;4.10;99.90;;;;;;5031667;28;20033;-75
2023/10/18 03:12:14;;;;;;;5.93;2.42;;;4.20;99.90;;;;;;5031196;28;19924;-74
2023/10/18 03:14:55;;;;;;;8.82;2.88;;;4.20;99.90;;;;;;5031320;28;20021;-74
2023/10/18 03:19:50;;;;;;;5.10;2.47;;;4.20;99.90;;;;;;5031950;28;20045;-75
2023/10/18 03:22:19;;;;;;;5.90;2.63;;;4.10;99.90;;;;;;5029396;28;20032;-75
2023/10/18 03:24:51;;;;;;;6.18;3.13;;;4.00;99.90;;;;;;5031142;28;20521;-75
2023/10/18 03:27:17;;;;;;;5.68;2.67;;;4.00;99.90;;;;;;5030159;28;20034;-74
2023/10/18 03:29:43;;;;;;;;;;;4.00;99.90;;;;;;5030548;28;20033;-75
2023/10/18 03:32:14;;;;;;;7.63;3.10;;;4.00;99.90;;;;;;5031734;28;20378;-74
2023/10/18 03:34:41;;;;;;;7.00;2.72;;;4.00;99.90;;;;;;5031729;28;20025;-74
2023/10/18 03:37:24;;;;;;;14.73;3.05;;;3.90;99.90;;;;;;5031647;28;20025;-75
2023/10/18 03:39:53;;;;;;;6.22;2.38;;;4.00;99.90;;;;;;5031888;28;20033;-74
2023/10/18 03:42:32;;;;;;;5.68;2.90;;;4.10;99.90;;;;;;5032082;28;20057;-74
2023/10/18 03:44:59;;;;;;;8.35;4.82;;;4.20;99.90;;;;;;5031491;28;20506;-75
2023/10/18 03:47:25;;;;;;;10.40;4.97;;;4.20;99.90;;;;;;5033308;28;20029;-75
2023/10/18 03:49:53;;;;;;;;;;;4.10;99.90;;;;;;5034492;28;20030;-74
2023/10/18 03:52:21;;;;;;;19.88;9.27;;;4.00;99.90;;;;;;5031505;28;19963;-74
2023/10/18 03:55:04;;;;;;;10.52;5.80;;;3.90;99.90;;;;;;5029086;28;20021;-76
2023/10/18 03:57:37;;;;;;;12.50;3.88;;;3.90;99.90;;;;;;5028940;28;20063;-75
2023/10/18 04:02:55;;;;;;;10.57;6.57;;;3.80;99.90;;;;;;5030239;28;20037;-74
2023/10/18 04:05:43;;;;;;;9.57;5.78;;;3.80;99.90;;;;;;5028703;28;20037;-75
2023/10/18 04:08:13;;;;;;;12.55;5.43;;;3.80;99.90;;;;;;5029574;28;20120;-74
2023/10/18 04:10:40;;;;;;;10.07;4.95;;;3.70;99.90;;;;;;5029848;28;20036;-75
2023/10/18 04:13:12;;;;;;;11.27;5.35;;;3.80;99.90;;;;;;5028529;28;20048;-74
2023/10/18 04:15:45;;;;;;;9.25;5.35;;;3.80;99.90;;;;;;5029800;28;20103;-75
2023/10/18 04:18:12;;;;;;;10.00;4.00;;;3.70;99.90;;;;;;5029696;28;20053;-75
2023/10/18 04:20:42;;;;;;;10.77;4.50;;;3.70;99.90;;;;;;5029846;28;20025;-74
2023/10/18 04:23:14;;;;;;;8.43;3.05;;;3.70;99.90;;;;;;5027567;28;20030;-74
2023/10/18 04:26:05;;;;;;;5.82;3.50;;;3.70;99.90;;;;;;5029706;28;20108;-75
2023/10/18 04:28:38;;;;;;;10.90;3.53;;;3.70;99.90;;;;;;5029720;28;20026;-74
2023/10/18 04:31:08;;;;;;;9.75;4.03;;;3.70;99.90;;;;;;5029803;28;20021;-75
2023/10/18 04:33:49;;;;;;;9.82;4.43;;;3.70;99.90;;;;;;5028574;28;20037;-75
2023/10/18 04:36:16;;;;;;;10.27;5.30;;;3.70;99.90;;;;;;5029571;28;20026;-75
2023/10/18 04:38:44;;;;;;;9.18;5.50;;;3.70;99.90;;;;;;5028174;28;20032;-75
2023/10/18 04:43:50;;;;;;;9.90;5.35;;;3.60;99.90;;;;;;5038774;28;20048;-74
2023/10/18 04:46:18;;;;;;;9.45;5.43;;;3.60;99.90;;;;;;5049300;28;20047;-74
2023/10/18 04:51:26;;;;;;;10.95;5.20;;;3.60;99.90;;;;;;5049168;28;20037;-74
2023/10/18 04:53:57;;;;;;;8.27;4.22;;;3.50;99.90;;;;;;5048018;28;20490;-75
2023/10/18 04:56:33;;;;;;;9.25;4.43;;;3.50;99.90;;;;;;5048852;28;20061;-75
2023/10/18 04:58:59;;;;;;;6.40;3.42;;;3.60;99.90;;;;;;5046377;28;20028;-75
2023/10/18 05:01:33;;;;;;;;;;;3.50;99.90;;;;;;5049731;28;20033;-75
2023/10/18 05:04:00;;;;;;;12.40;4.40;;;3.50;99.90;;;;;;5049322;28;20027;-75
2023/10/18 05:06:29;;;;;;;8.25;3.97;;;3.50;99.90;;;;;;5047812;28;20043;-75
2023/10/18 05:08:56;;;;;;;9.57;4.78;;;3.60;99.90;;;;;;5047967;28;20855;-75
2023/10/18 05:11:25;;;;;;;10.98;5.63;;;3.60;99.90;;;;;;5048890;28;20025;-75
2023/10/18 05:13:56;;;;;;;12.82;5.30;;;3.50;99.90;;;;;;5049323;28;20417;-75
2023/10/18 05:16:26;;;;;;;9.02;4.70;;;3.40;99.90;;;;;;5049244;28;20017;-75
2023/10/18 05:18:52;;;;;;;10.30;5.55;;;3.40;99.90;;;;;;5048067;28;20056;-75
2023/10/18 05:21:20;;;;;;;;;;;3.60;99.90;;;;;;5049805;28;20036;-75
2023/10/18 05:23:46;;;;;;;7.25;3.30;;;3.80;99.90;;;;;;5049641;28;20016;-75
2023/10/18 05:26:18;;;;;;;;;;;3.80;99.90;;;;;;5049909;28;20581;-73
2023/10/18 05:28:47;;;;;;;8.15;3.10;;;3.90;99.90;;;;;;5048374;28;19944;-75
2023/10/18 05:31:26;;;;;;;10.13;5.20;;;3.90;99.90;;;;;;5049830;28;20159;-75
2023/10/18 05:34:02;;;;;;;14.15;6.18;;;3.90;99.90;;;;;;5050053;28;20045;-74
2023/10/18 05:41:51;;;;;;;11.55;5.93;;;4.30;99.90;;;;;;5050473;28;20029;-75
2023/10/18 05:44:17;;;;;;;11.25;5.22;;;4.40;99.90;;;;;;5049275;28;20025;-75
2023/10/18 05:46:46;;;;;;;8.35;3.97;;;4.40;99.90;;;;;;5053015;28;20028;-75
2023/10/18 05:49:15;;;;;;;7.25;3.08;;;4.40;99.90;;;;;;5054365;28;20025;-75
2023/10/18 05:54:28;;;;;;;5.88;3.00;;;4.40;99.90;;;;;;5033489;28;20627;-75
2023/10/18 05:56:56;;;;;;;9.93;4.05;;;4.30;99.90;;;;;;5056407;28;20033;-76
2023/10/18 06:01:48;;;;;;;;;;;4.40;99.90;;;;;;5052910;28;20025;-74
2023/10/18 12:05:45;;;;;;;4.70;3.17;;;13.10;59.20;;;;;;5108196;27;20477;-76
2023/10/18 12:08:14;;;;;;;;;;;13.50;59.80;;;;;;5107280;28;20270;-76
2023/10/18 12:10:39;;;;;;;10.38;3.92;;;13.50;58.20;;;;;;5106424;28;19904;-75
2023/10/18 12:13:12;;;;;;;;;;;13.70;57.60;;;;;;5107212;28;20531;-76
2023/10/18 12:15:38;;;;;;;8.57;3.80;;;13.70;57.50;;;;;;5106746;28;20303;-76
2023/10/18 12:18:05;;;;;;;7.72;3.08;;;13.60;58.40;;;;;;5108021;28;20394;-76
2023/10/18 12:20:35;;;;;;;11.18;4.20;;;13.60;58.60;;;;;;5106679;28;20020;-77
2023/10/18 12:23:10;;;;;;;11.35;4.00;;;13.50;58.80;;;;;;5107028;28;20024;-76
2023/10/18 12:25:38;;;;;;;9.93;3.75;;;13.60;58.90;;;;;;5106464;28;20374;-76
2023/10/18 12:28:13;;;;;;;5.63;2.58;;;13.60;59.20;;;;;;5108124;28;20433;-76
2023/10/18 12:30:51;;;;;;;7.63;3.70;;;13.60;58.80;;;;;;5106743;28;20077;-77
2023/10/18 12:33:25;;;;;;;5.60;2.80;;;13.70;57.30;;;;;;5107855;28;20027;-75
2023/10/18 12:35:51;;;;;;;13.15;2.97;;;13.70;57.70;;;;;;5106482;28;20043;-75
2023/10/18 12:38:30;;;;;;;8.68;2.80;;;13.70;57.80;;;;;;5107505;28;20487;-74
2023/10/18 12:40:58;;;;;;;7.45;2.78;;;13.70;58.80;;;;;;5107678;28;20224;-76
2023/10/18 12:43:25;;;;;;;6.97;2.88;;;13.80;59.70;;;;;;5107578;28;20491;-76
2023/10/18 12:45:51;;;;;;;5.55;3.00;;;13.90;59.50;;;;;;5107572;28;20081;-76
2023/10/18 12:48:22;;;;;;;;;;;14.00;59.40;;;;;;5107894;28;20028;-76
2023/10/18 12:50:50;;;;;;;6.20;3.13;;;14.10;59.10;;;;;;5106365;28;20276;-76
2023/10/18 12:55:57;;;;;;;9.73;4.78;;;14.20;58.60;;;;;;5107413;28;20035;-76
2023/10/18 12:58:32;;;;;;;106.10;61.00;;;14.30;59.10;;;;;;5105905;28;20522;-76
2023/10/18 13:01:06;;;;;;;24.20;12.27;;;14.30;57.90;;;;;;5106758;28;20054;-77
2023/10/18 13:03:38;;;;;;;100.32;57.55;;;14.40;58.10;;;;;;5107053;28;20041;-76
2023/10/18 13:06:15;;;;;;;69.88;40.42;;;14.50;57.60;;;;;;5096120;28;20031;-76
2023/10/18 13:08:54;;;;;;;14.30;8.52;;;14.60;56.90;;;;;;5093573;28;20067;-76
2023/10/18 13:14:06;;;;;;;12.65;5.68;;;14.50;57.00;;;;;;5093497;28;20542;-76
2023/10/18 13:16:32;;;;;;;9.55;4.80;;;14.50;56.10;;;;;;5092082;28;20020;-76
2023/10/18 13:18:58;;;;;;;8.50;4.32;;;14.40;57.00;;;;;;5093470;28;20028;-76
2023/10/18 13:21:29;;;;;;;;;;;14.40;57.40;;;;;;5092581;28;20028;-77
2023/10/18 13:24:16;;;;;;;5.90;2.60;;;14.40;57.50;;;;;;5093197;28;20267;-76
2023/10/18 13:26:52;;;;;;;7.00;3.35;;;14.30;57.40;;;;;;5093293;28;20639;-76
2023/10/18 13:31:47;;;;;;;8.00;3.20;;;14.20;56.60;;;;;;5093126;28;20024;-76
2023/10/18 13:34:19;;;;;;;12.77;4.30;;;14.10;57.40;;;;;;5091417;28;20097;-76
2023/10/18 13:36:48;;;;;;;5.88;3.33;;;14.00;57.70;;;;;;5093036;28;20020;-76
2023/10/18 13:39:16;;;;;;;7.18;3.08;;;14.00;58.20;;;;;;5092882;28;20065;-77
2023/10/18 13:41:46;;;;;;;8.82;3.17;;;13.90;58.80;;;;;;5093097;28;20560;-76
2023/10/18 13:44:19;;;;;;;7.75;3.13;;;14.00;57.90;;;;;;5093024;28;20028;-76
2023/10/18 13:46:55;;;;;;;25.50;17.10;;;13.90;56.80;;;;;;5092861;28;20020;-75
2023/10/18 13:49:23;;;;;;;9.38;3.05;;;13.90;57.80;;;;;;5091575;28;20028;-76
2023/10/18 13:51:50;;;;;;;7.03;2.80;;;13.90;56.70;;;;;;5092953;28;20547;-76
2023/10/18 13:54:16;;;;;;;12.10;3.20;;;13.80;57.50;;;;;;5092633;28;20040;-76
2023/10/18 13:56:43;;;;;;;;;;;13.90;57.30;;;;;;5093154;28;20103;-75
2023/10/18 13:59:10;;;;;;;5.85;2.90;;;13.70;58.10;;;;;;5092380;28;19956;-76
2023/10/18 14:01:38;;;;;;;8.20;3.20;;;13.70;59.00;;;;;;5092627;28;20081;-75
2023/10/18 14:04:05;;;;;;;6.50;3.35;;;13.80;57.70;;;;;;5092310;28;20092;-75
2023/10/18 14:06:34;;;;;;;10.75;3.47;;;13.70;58.50;;;;;;5092421;28;20090;-75
2023/10/18 14:09:00;;;;;;;12.73;4.00;;;13.60;58.90;;;;;;5092347;28;20035;-75
2023/10/18 14:11:27;;;;;;;;;;;13.70;58.30;;;;;;5092898;28;20027;-76
2023/10/18 14:13:55;;;;;;;6.57;3.63;;;13.70;58.30;;;;;;5092315;28;19908;-75
2023/10/18 14:16:22;;;;;;;5.93;2.83;;;13.70;58.90;;;;;;5091876;28;20119;-74
2023/10/18 14:18:50;;;;;;;8.52;3.03;;;13.60;58.70;;;;;;5091699;28;20050;-75
2023/10/18 14:21:15;;;;;;;7.78;3.25;;;13.60;59.20;;;;;;5092112;28;20108;-75
2023/10/18 14:23:41;;;;;;;;;;;13.60;59.70;;;;;;5092571;28;20103;-75
2023/10/18 14:26:08;;;;;;;8.05;2.60;;;13.60;59.70;;;;;;5092071;28;19935;-75
2023/10/18 14:28:34;;;;;;;7.15;2.72;;;13.70;59.60;;;;;;5092059;28;20020;-75
2023/10/18 14:31:02;;;;;;;5.63;2.40;;;13.60;59.50;;;;;;5092033;28;20099;-75
2023/10/18 14:33:31;;;;;;;6.45;3.58;;;13.60;60.00;;;;;;5091904;28;20484;-75
2023/10/18 14:36:06;;;;;;;6.95;3.80;;;13.50;59.70;;;;;;5091941;28;20504;-75
2023/10/18 14:38:34;;;;;;;9.27;3.28;;;13.50;59.90;;;;;;5091818;28;20020;-75
2023/10/18 14:41:03;;;;;;;15.23;6.65;;;13.50;59.40;;;;;;5091852;28;20082;-75
2023/10/18 14:43:31;;;;;;;15.57;9.50;;;13.40;60.10;;;;;;5091874;28;20119;-75
2023/10/18 14:45:59;;;;;;;11.38;6.32;;;13.30;60.70;;;;;;5091695;28;20484;-75
2023/10/18 14:48:25;;;;;;;8.57;4.55;;;13.30;61.10;;;;;;5091663;28;20085;-75
2023/10/18 14:50:51;;;;;;;;;;;13.30;61.70;;;;;;5092124;28;20488;-75
2023/10/18 14:53:17;;;;;;;20.10;8.98;;;13.30;61.70;;;;;;5091485;28;19908;-75
2023/10/18 14:55:44;;;;;;;35.75;19.65;;;13.20;61.50;;;;;;5091509;28;20024;-75
2023/10/18 14:58:09;;;;;;;217.82;142.52;;;13.20;61.60;;;;;;5091417;28;20052;-75
2023/10/18 15:00:35;;;;;;;;;;;13.20;61.20;;;;;;5091814;28;20062;-75
2023/10/18 15:03:02;;;;;;;10.15;6.45;;;13.10;61.50;;;;;;5091508;28;19904;-75
2023/10/18 15:05:28;;;;;;;9.82;3.95;;;13.10;62.20;;;;;;5091351;28;20056;-75
2023/10/18 15:07:57;;;;;;;;;;;13.00;62.50;;;;;;5091792;28;20073;-76
2023/10/18 15:10:23;;;;;;;8.10;3.47;;;13.00;62.30;;;;;;5091416;28;20360;-75
2023/10/18 15:12:49;;;;;;;;;;;12.80;62.50;;;;;;5091785;28;20023;-75
2023/10/18 15:15:14;;;;;;;18.20;4.97;;;12.90;63.30;;;;;;5089817;28;19919;-75
2023/10/18 15:17:42;;;;;;;;;;;12.80;64.60;;;;;;5091689;28;20027;-75
2023/10/18 15:20:10;;;;;;;16.05;8.68;;;12.70;64.80;;;;;;5091348;28;19915;-75
2023/10/18 15:22:35;;;;;;;20.52;9.82;;;12.50;65.80;;;;;;5091093;28;20016;-74
2023/10/18 15:25:04;;;;;;;;;;;12.50;66.20;;;;;;5091607;28;20031;-75
2023/10/18 15:27:31;;;;;;;12.20;4.10;;;12.40;66.80;;;;;;5090995;28;20403;-75
2023/10/18 15:29:56;;;;;;;17.48;4.22;;;12.30;67.50;;;;;;5090884;28;20020;-75
2023/10/18 15:32:22;;;;;;;;;;;12.20;68.30;;;;;;5091458;28;20417;-75
2023/10/18 15:34:48;;;;;;;11.43;3.95;;;12.00;68.40;;;;;;5090896;28;19923;-75
2023/10/18 15:37:14;;;;;;;;;;;12.00;69.80;;;;;;5091427;28;20555;-75
2023/10/18 15:39:42;;;;;;;9.52;4.63;;;11.90;70.00;;;;;;5090971;28;19908;-74
2023/10/18 15:42:09;;;;;;;7.13;3.58;;;11.70;70.80;;;;;;5090969;28;20032;-75
2023/10/18 15:44:37;;;;;;;7.72;3.83;;;11.60;71.80;;;;;;5090879;28;20480;-75
2023/10/18 15:47:03;;;;;;;8.25;3.47;;;11.60;72.70;;;;;;5090800;28;20027;-75
2023/10/18 15:49:29;;;;;;;8.05;3.17;;;11.50;73.20;;;;;;5090777;28;20099;-75
2023/10/18 15:51:55;;;;;;;;;;;11.40;74.40;;;;;;5091229;28;20104;-74
2023/10/18 15:54:23;;;;;;;13.65;6.30;;;11.30;75.10;;;;;;5090691;28;20307;-75
2023/10/18 15:56:49;;;;;;;9.85;4.65;;;11.10;76.30;;;;;;5089275;28;20024;-75
2023/10/18 15:59:17;;;;;;;;;;;11.00;77.10;;;;;;5091078;28;20020;-75
2023/10/18 16:01:44;;;;;;;121.63;48.00;;;10.90;77.90;;;;;;5089420;28;19904;-75
2023/10/18 16:04:09;;;;;;;100.07;39.63;;;10.80;79.10;;;;;;5089094;28;20422;-76
2023/10/18 16:06:35;;;;;;;;;;;10.80;79.10;;;;;;5090986;28;20035;-75
2023/10/18 16:09:00;;;;;;;54.65;25.88;;;10.70;79.60;;;;;;5090648;28;19959;-75
2023/10/18 16:11:27;;;;;;;;;;;10.60;79.90;;;;;;5091055;28;20032;-75
2023/10/18 16:13:55;;;;;;;26.60;13.25;;;10.50;80.50;;;;;;5090484;28;19973;-75
2023/10/18 16:16:24;;;;;;;19.67;11.60;;;10.40;81.70;;;;;;5090435;28;20019;-75
2023/10/18 16:18:55;;;;;;;22.50;9.60;;;10.40;82.80;;;;;;5090494;28;20103;-75
2023/10/18 16:21:23;;;;;;;19.90;8.38;;;10.30;84.60;;;;;;5089142;28;20020;-75
2023/10/18 16:23:50;;;;;;;15.25;7.68;;;10.20;85.70;;;;;;5090419;28;20024;-74
2023/10/18 16:26:23;;;;;;;17.42;8.25;;;10.20;86.80;;;;;;5090329;28;20028;-75
2023/10/18 16:28:49;;;;;;;17.35;9.07;;;10.00;87.60;;;;;;5090391;28;20081;-74
2023/10/18 16:31:17;;;;;;;19.05;9.82;;;9.90;88.40;;;;;;5090503;28;20020;-75
2023/10/18 16:33:48;;;;;;;17.08;9.02;;;9.90;89.30;;;;;;5090474;28;20103;-74
2023/10/18 16:36:16;;;;;;;18.80;9.70;;;9.80;89.90;;;;;;5090365;28;20059;-74
2023/10/18 16:38:43;;;;;;;12.88;7.57;;;9.80;90.40;;;;;;5089041;28;20741;-75
2023/10/18 16:41:11;;;;;;;19.70;8.55;;;9.70;90.70;;;;;;5091253;28;20119;-75
2023/10/18 16:43:38;;;;;;;13.35;6.28;;;9.60;91.00;;;;;;5094170;28;20023;-75
2023/10/18 16:46:08;;;;;;;13.85;5.63;;;9.60;91.40;;;;;;5094102;28;20026;-74
2023/10/18 16:48:35;;;;;;;14.70;7.13;;;9.50;91.90;;;;;;5093988;28;20024;-74
2023/10/18 16:51:05;;;;;;;18.25;7.38;;;9.40;92.20;;;;;;5093981;28;20020;-74
2023/10/18 16:53:35;;;;;;;14.73;8.52;;;9.30;92.50;;;;;;5093977;28;20043;-74
2023/10/18 16:56:04;;;;;;;17.25;11.30;;;9.30;92.50;;;;;;5092526;28;20024;-75
2023/10/18 16:58:31;;;;;;;17.83;9.68;;;9.20;92.90;;;;;;5093710;28;20020;-75
2023/10/18 17:01:03;;;;;;;17.73;8.68;;;9.30;93.30;;;;;;5092500;28;20028;-75
2023/10/18 17:03:29;;;;;;;9.50;5.15;;;9.30;93.20;;;;;;5092360;28;20397;-74
2023/10/18 17:05:57;;;;;;;17.13;5.20;;;9.30;93.20;;;;;;5093744;28;20500;-75
2023/10/18 17:08:27;;;;;;;12.43;4.20;;;9.20;93.50;;;;;;5092319;28;20024;-75
2023/10/18 17:10:54;;;;;;;10.63;4.88;;;9.10;93.70;;;;;;5093561;28;20025;-75
2023/10/18 17:13:20;;;;;;;15.02;4.45;;;9.10;94.00;;;;;;5093545;28;20024;-73
2023/10/18 17:15:50;;;;;;;;;;;9.10;93.90;;;;;;5093923;28;20028;-75
2023/10/18 17:18:16;;;;;;;28.95;15.57;;;9.20;93.90;;;;;;5093445;28;19912;-75
2023/10/18 17:20:44;;;;;;;44.58;24.63;;;9.30;93.80;;;;;;5093435;28;20024;-74
2023/10/18 17:23:10;;;;;;;53.95;31.75;;;9.20;93.80;;;;;;5093595;28;20031;-74
2023/10/18 17:25:37;;;;;;;45.40;25.67;;;9.30;93.80;;;;;;5093317;28;20062;-75
2023/10/18 17:28:05;;;;;;;22.48;13.82;;;9.20;93.90;;;;;;5093233;28;20380;-75
2023/10/18 17:30:34;;;;;;;18.52;8.60;;;9.20;94.20;;;;;;5093294;28;20035;-75
2023/10/18 17:33:02;;;;;;;21.70;9.95;;;9.10;94.40;;;;;;5093328;28;20488;-75
2023/10/18 17:35:28;;;;;;;23.92;13.98;;;9.10;94.50;;;;;;5093288;28;20068;-75
2023/10/18 17:37:56;;;;;;;24.10;11.18;;;9.00;94.70;;;;;;5093199;28;20028;-75
2023/10/18 17:40:22;;;;;;;14.57;8.18;;;8.90;94.90;;;;;;5093092;28;20153;-75
2023/10/18 17:42:50;;;;;;;13.43;7.18;;;8.90;95.20;;;;;;5093092;28;20036;-75
2023/10/18 17:45:19;;;;;;;33.13;16.90;;;8.80;95.40;;;;;;5093083;28;20028;-75
2023/10/18 17:47:46;;;;;;;49.08;25.95;;;8.80;95.70;;;;;;5092859;28;20103;-75
2023/10/18 17:50:13;;;;;;;33.67;16.02;;;8.80;95.60;;;;;;5092967;28;20084;-74
2023/10/18 17:52:47;;;;;;;16.38;8.90;;;8.80;95.70;;;;;;5092622;28;20099;-74
2023/10/18 17:55:19;;;;;;;18.65;6.60;;;8.70;96.00;;;;;;5092774;28;20036;-75
2023/10/18 17:57:46;;;;;;;12.55;5.85;;;8.70;96.40;;;;;;5092733;28;20107;-74
2023/10/18 18:00:25;;;;;;;14.90;7.40;;;8.70;96.60;;;;;;5092877;28;20035;-74
2023/10/18 18:02:56;;;;;;;16.70;9.38;;;8.70;97.10;;;;;;5092502;28;20059;-75
2023/10/18 18:05:34;;;;;;;20.65;11.10;;;8.70;97.30;;;;;;5092673;28;20044;-74
2023/10/18 18:08:12;;;;;;;33.28;11.65;;;8.60;97.40;;;;;;5092470;28;20035;-75
2023/10/18 18:10:50;;;;;;;19.08;9.45;;;8.60;97.70;;;;;;5091163;28;20052;-75
2023/10/18 18:13:25;;;;;;;19.70;9.95;;;8.70;97.70;;;;;;5091047;28;20115;-74
2023/10/18 18:15:51;;;;;;;17.77;9.48;;;8.70;97.80;;;;;;5091027;28;20036;-75
2023/10/18 18:18:25;;;;;;;18.60;8.90;;;8.60;98.00;;;;;;5091024;28;20020;-75
2023/10/18 18:20:54;;;;;;;20.05;8.93;;;8.60;98.10;;;;;;5091235;28;20034;-75
2023/10/18 18:23:20;;;;;;;19.83;9.15;;;8.60;98.30;;;;;;5092303;28;20026;-74
2023/10/18 18:25:46;;;;;;;20.20;9.00;;;8.60;98.70;;;;;;5090882;28;20066;-74
2023/10/18 18:28:13;;;;;;;21.38;8.80;;;8.50;98.80;;;;;;5092146;28;20031;-74
2023/10/18 18:30:41;;;;;;;17.67;9.27;;;8.50;98.90;;;;;;5092179;28;20468;-74
2023/10/18 18:33:07;;;;;;;10.85;6.78;;;8.50;99.20;;;;;;5090717;28;20024;-75
2023/10/18 18:35:33;;;;;;;;;;;8.50;99.10;;;;;;5092348;28;20084;-75
2023/10/18 18:37:59;;;;;;;15.20;7.50;;;8.50;99.10;;;;;;5091686;28;19908;-74
2023/10/18 18:40:27;;;;;;;14.93;8.02;;;8.40;99.20;;;;;;5090519;28;20047;-74
2023/10/18 18:42:53;;;;;;;13.82;7.68;;;8.50;99.20;;;;;;5090570;28;20039;-75
2023/10/18 18:45:18;;;;;;;;;;;8.50;99.50;;;;;;5092315;28;20036;-74
2023/10/18 18:47:46;;;;;;;12.57;4.60;;;8.60;99.30;;;;;;5091620;28;20360;-75
2023/10/18 18:50:12;;;;;;;11.20;4.75;;;8.60;99.10;;;;;;5090464;28;20028;-75
2023/10/18 18:52:42;;;;;;;;;;;8.60;99.20;;;;;;5092205;28;20040;-75
2023/10/18 18:55:10;;;;;;;8.30;4.18;;;8.60;99.10;;;;;;5091494;28;19997;-74
2023/10/18 18:57:38;;;;;;;12.85;4.45;;;8.50;99.20;;;;;;5091722;28;20023;-75
2023/10/18 19:00:16;;;;;;;13.25;4.38;;;8.50;99.30;;;;;;5091551;28;20386;-74
2023/10/18 19:02:44;;;;;;;10.45;4.40;;;8.50;99.20;;;;;;5091208;28;20024;-74
2023/10/18 19:05:10;;;;;;;9.88;3.92;;;8.60;99.30;;;;;;5091126;28;20127;-74
2023/10/18 19:07:36;;;;;;;9.63;4.00;;;8.70;99.10;;;;;;5091330;28;20021;-75
2023/10/18 19:10:02;;;;;;;;;;;8.70;99.00;;;;;;5091955;28;20579;-75
2023/10/18 19:12:33;;;;;;;9.48;3.88;;;8.70;98.80;;;;;;5090065;28;19919;-75
2023/10/18 19:14:59;;;;;;;13.10;4.47;;;8.80;98.90;;;;;;5089907;28;20032;-74
2023/10/18 19:17:26;;;;;;;;;;;8.70;98.80;;;;;;5091754;28;20452;-74
2023/10/18 19:19:52;;;;;;;21.13;8.32;;;8.80;98.70;;;;;;5091365;28;19952;-75
2023/10/18 19:22:18;;;;;;;;;;;8.80;98.70;;;;;;5091751;28;20112;-75
2023/10/18 19:24:44;;;;;;;24.70;9.18;;;8.80;98.60;;;;;;5091192;28;19908;-75
2023/10/18 19:27:10;;;;;;;10.77;4.43;;;8.90;98.30;;;;;;5089945;28;20032;-77
2023/10/18 19:29:36;;;;;;;9.15;3.95;;;8.90;98.30;;;;;;5090953;28;20030;-75
2023/10/18 19:32:04;;;;;;;;;;;8.90;98.30;;;;;;5091630;28;20562;-75
2023/10/18 19:34:31;;;;;;;9.68;3.65;;;8.90;98.30;;;;;;5090897;28;19969;-75
2023/10/18 19:36:58;;;;;;;8.45;3.65;;;9.00;98.00;;;;;;5091008;28;20028;-75
2023/10/18 19:39:27;;;;;;;6.20;3.50;;;9.00;97.80;;;;;;5090975;28;20024;-75
2023/10/18 19:41:53;;;;;;;9.52;3.95;;;9.00;97.80;;;;;;5090892;28;20022;-74